Time;durP1;ratioP1;P1;durP2;ratioP2;P2;SDS_P1;SDS_P2;PMS_P1;PMS_P2;Temp;Humidity;BMP_temperature;BMP_pressure;BME280_temperature;BME280_humidity;BME280_pressure;Samples;Min_cycle;Max_cycle;Signal;HPM_P1;HPM_P2
2022/07/05 00:00:56;;;;;;;1.50;1.40;;;15.80;99.90;;;;;;5006707;28;20444;-83
2022/07/05 00:03:21;;;;;;;2.30;1.43;;;15.80;99.90;;;;;;5012496;28;20463;-86
2022/07/05 00:05:47;;;;;;;2.20;1.43;;;15.80;99.90;;;;;;5010904;28;20344;-86
2022/07/05 00:08:13;;;;;;;2.30;1.10;;;15.80;99.90;;;;;;5014173;28;20194;-85
2022/07/05 00:10:39;;;;;;;1.23;1.13;;;15.00;99.90;;;;;;5015869;28;20209;-88
2022/07/05 00:13:05;;;;;;;2.40;1.20;;;15.70;99.90;;;;;;5016417;28;20329;-86
2022/07/05 00:15:31;;;;;;;1.57;1.17;;;15.70;99.90;;;;;;5012164;28;20716;-82
2022/07/05 00:17:57;;;;;;;2.80;1.33;;;15.70;99.90;;;;;;5014996;28;20524;-81
2022/07/05 00:20:22;;;;;;;4.23;1.23;;;15.60;99.90;;;;;;5022566;28;20183;-82
2022/07/05 00:22:48;;;;;;;1.37;1.27;;;15.60;99.90;;;;;;5016426;28;20245;-82
2022/07/05 00:25:14;;;;;;;2.90;1.07;;;15.60;99.90;;;;;;5023431;28;20218;-83
2022/07/05 00:27:40;;;;;;;1.30;1.10;;;15.60;99.90;;;;;;5010946;28;20226;-83
2022/07/05 00:30:07;;;;;;;1.63;1.40;;;15.50;99.90;;;;;;5006663;28;20436;-84
2022/07/05 00:32:32;;;;;;;3.53;1.30;;;15.50;99.90;;;;;;4998635;28;20301;-83
2022/07/05 00:34:58;;;;;;;3.90;1.53;;;15.50;99.90;;;;;;4999550;28;21292;-86
2022/07/05 00:37:23;;;;;;;8.50;1.30;;;15.40;99.90;;;;;;5011671;28;20190;-86
2022/07/05 00:39:49;;;;;;;3.37;1.50;;;15.40;99.90;;;;;;5004434;28;20269;-80
2022/07/05 00:42:14;;;;;;;3.00;1.10;;;15.30;99.90;;;;;;4997080;28;20206;-82
2022/07/05 00:44:41;;;;;;;1.70;1.30;;;15.30;99.90;;;;;;5003062;28;20209;-83
2022/07/05 00:47:08;;;;;;;1.23;1.10;;;15.30;99.90;;;;;;5007177;28;20214;-80
2022/07/05 00:49:36;;;;;;;4.80;1.30;;;15.30;99.90;;;;;;5018402;28;20442;-80
2022/07/05 00:52:03;;;;;;;4.70;1.50;;;15.20;99.90;;;;;;5008974;28;20485;-81
2022/07/05 00:54:31;;;;;;;1.53;1.27;;;15.20;99.90;;;;;;5015114;28;20782;-80
2022/07/05 00:56:58;;;;;;;3.20;1.20;;;15.20;99.90;;;;;;5002302;28;20456;-79
2022/07/05 00:59:24;;;;;;;3.23;1.10;;;15.20;99.90;;;;;;5005747;28;20441;-81
2022/07/05 01:01:49;;;;;;;3.90;1.10;;;15.20;99.90;;;;;;5001425;28;20459;-81
2022/07/05 01:04:15;;;;;;;4.87;1.40;;;15.20;99.90;;;;;;5024291;28;20187;-77
2022/07/05 01:06:43;;;;;;;5.27;1.00;;;15.20;99.90;;;;;;5008478;28;20230;-80
2022/07/05 01:09:12;;;;;;;2.33;1.13;;;15.20;99.90;;;;;;5009513;28;22422;-83
2022/07/05 01:11:42;;;;;;;4.30;1.43;;;15.10;99.90;;;;;;5005691;28;20475;-81
2022/07/05 01:14:10;;;;;;;2.10;1.10;;;15.10;99.90;;;;;;5008888;28;20429;-80
2022/07/05 01:16:38;;;;;;;8.73;1.50;;;15.10;99.90;;;;;;5007863;28;21114;-81
2022/07/05 01:19:06;;;;;;;1.37;1.20;;;15.10;99.90;;;;;;5006217;28;20439;-79
2022/07/05 01:21:34;;;;;;;5.80;1.53;;;15.00;99.90;;;;;;5014424;28;21218;-85
2022/07/05 01:24:00;;;;;;;2.40;1.30;;;15.10;99.90;;;;;;5011147;28;20906;-85
2022/07/05 01:26:26;;;;;;;2.20;1.37;;;15.00;99.90;;;;;;5010364;28;20467;-85
2022/07/05 01:28:51;;;;;;;5.13;1.50;;;15.00;99.90;;;;;;5011953;28;20514;-86
2022/07/05 01:31:17;;;;;;;2.97;1.20;;;15.70;99.90;;;;;;5011184;28;20210;-88
2022/07/05 01:33:42;;;;;;;2.20;1.57;;;14.90;99.90;;;;;;5013309;28;20177;-87
2022/07/05 01:36:11;;;;;;;3.60;1.30;;;14.90;99.90;;;;;;5011696;28;20187;-83
2022/07/05 01:38:37;;;;;;;6.03;1.43;;;14.80;99.90;;;;;;5008795;28;20179;-86
2022/07/05 01:41:03;;;;;;;4.37;1.30;;;14.80;99.90;;;;;;5003899;28;20457;-85
2022/07/05 01:43:28;;;;;;;5.07;1.50;;;14.70;99.90;;;;;;5004192;28;21562;-84
2022/07/05 01:45:56;;;;;;;4.10;1.17;;;14.90;99.90;;;;;;5004233;28;20985;-87
2022/07/05 01:48:21;;;;;;;3.20;1.23;;;14.60;99.90;;;;;;5011210;28;20190;-84
2022/07/05 01:50:51;;;;;;;1.90;1.20;;;14.70;99.90;;;;;;5007761;28;20472;-80
2022/07/05 01:53:23;;;;;;;6.90;1.73;;;14.60;99.90;;;;;;5011215;28;20197;-83
2022/07/05 01:55:49;;;;;;;1.83;1.20;;;14.60;99.90;;;;;;5007826;28;20438;-81
2022/07/05 01:58:15;;;;;;;2.57;1.33;;;14.60;99.90;;;;;;5018546;28;20433;-82
2022/07/05 02:00:46;;;;;;;3.23;1.40;;;14.60;99.90;;;;;;5022186;28;20801;-84
2022/07/05 02:03:12;;;;;;;1.77;1.00;;;14.60;99.90;;;;;;5007028;28;20473;-80
2022/07/05 02:05:38;;;;;;;2.40;1.60;;;14.60;99.90;;;;;;5012943;28;20460;-86
2022/07/05 02:08:04;;;;;;;2.93;1.03;;;14.60;99.90;;;;;;5010980;28;20541;-83
2022/07/05 02:10:29;;;;;;;4.07;1.57;;;14.60;99.90;;;;;;5006235;28;20250;-83
2022/07/05 02:12:55;;;;;;;3.67;1.47;;;14.50;99.90;;;;;;5008370;28;20334;-84
2022/07/05 02:15:21;;;;;;;2.43;1.33;;;14.50;99.90;;;;;;5005622;28;20183;-87
2022/07/05 02:17:46;;;;;;;3.53;1.40;;;14.50;99.90;;;;;;5008728;28;20186;-85
2022/07/05 02:20:12;;;;;;;3.97;1.37;;;14.50;99.90;;;;;;5010291;28;20239;-82
2022/07/05 02:22:38;;;;;;;5.90;1.20;;;14.50;99.90;;;;;;5011350;28;20259;-86
2022/07/05 02:25:04;;;;;;;2.70;1.30;;;14.40;99.90;;;;;;5006888;28;20449;-85
2022/07/05 02:27:29;;;;;;;1.23;0.90;;;14.30;99.90;;;;;;5009567;28;21069;-84
2022/07/05 02:29:55;;;;;;;1.30;1.07;;;14.30;99.90;;;;;;5008006;28;20461;-84
2022/07/05 02:32:20;;;;;;;1.67;1.50;;;14.30;99.90;;;;;;5003920;28;20226;-84
2022/07/05 02:34:46;;;;;;;1.23;0.90;;;14.30;99.90;;;;;;5011019;28;20753;-84
2022/07/05 02:37:11;;;;;;;1.30;0.87;;;14.30;99.90;;;;;;5010426;28;20183;-83
2022/07/05 02:39:37;;;;;;;1.30;1.17;;;14.30;99.90;;;;;;5006472;28;20179;-85
2022/07/05 02:42:03;;;;;;;2.10;1.03;;;14.30;99.90;;;;;;5008842;28;20702;-85
2022/07/05 02:44:29;;;;;;;5.63;1.70;;;14.20;99.90;;;;;;5008541;28;20186;-86
2022/07/05 02:46:54;;;;;;;4.10;1.10;;;14.20;99.90;;;;;;5008075;28;20674;-83
2022/07/05 02:49:20;;;;;;;1.83;1.40;;;14.10;99.90;;;;;;5007837;28;20203;-82
2022/07/05 02:51:45;;;;;;;3.07;1.67;;;14.10;99.90;;;;;;4998855;28;20221;-85
2022/07/05 02:54:11;;;;;;;1.20;1.10;;;14.10;99.90;;;;;;5002644;28;20174;-82
2022/07/05 02:56:36;;;;;;;7.07;1.40;;;14.10;99.90;;;;;;5003532;28;20665;-84
2022/07/05 02:59:03;;;;;;;4.60;1.60;;;14.10;99.90;;;;;;5004220;28;20224;-85
2022/07/05 03:01:28;;;;;;;1.95;1.13;;;14.00;99.90;;;;;;5007493;28;20277;-83
2022/07/05 03:03:54;;;;;;;1.50;1.40;;;14.00;99.90;;;;;;5006999;28;20194;-83
2022/07/05 03:06:19;;;;;;;3.33;0.90;;;14.00;99.90;;;;;;5003998;28;20272;-83
2022/07/05 03:08:45;;;;;;;2.60;1.67;;;14.00;99.90;;;;;;5004078;28;20182;-84
2022/07/05 03:11:12;;;;;;;1.23;1.13;;;14.00;99.90;;;;;;5000854;28;20219;-84
2022/07/05 03:13:37;;;;;;;3.70;1.70;;;13.90;99.90;;;;;;5003888;28;20177;-85
2022/07/05 03:16:03;;;;;;;1.30;0.80;;;14.00;99.90;;;;;;5000448;28;20214;-86
2022/07/05 03:18:28;;;;;;;2.83;1.10;;;14.00;99.90;;;;;;5010087;28;20269;-80
2022/07/05 03:20:54;;;;;;;2.70;1.00;;;14.00;99.90;;;;;;5008938;28;21092;-86
2022/07/05 03:23:20;;;;;;;1.50;1.40;;;13.90;99.90;;;;;;5012458;28;20204;-82
2022/07/05 03:25:45;;;;;;;5.30;1.43;;;13.90;99.90;;;;;;5008228;28;20182;-81
2022/07/05 03:28:11;;;;;;;2.67;1.50;;;13.90;99.90;;;;;;5005585;28;20190;-81
2022/07/05 03:30:36;;;;;;;1.27;1.17;;;14.00;99.90;;;;;;5010500;28;20584;-82
2022/07/05 03:33:02;;;;;;;1.47;1.37;;;14.20;99.90;;;;;;5009601;28;20201;-84
2022/07/05 03:35:27;;;;;;;2.20;1.50;;;14.10;99.90;;;;;;5007822;28;20240;-84
2022/07/05 03:37:53;;;;;;;1.70;1.07;;;14.10;99.90;;;;;;5010370;28;20171;-84
2022/07/05 03:40:18;;;;;;;4.03;1.30;;;14.10;99.90;;;;;;5003875;28;20182;-81
2022/07/05 03:42:44;;;;;;;1.33;1.13;;;14.10;99.90;;;;;;5003732;28;20276;-82
2022/07/05 03:45:10;;;;;;;2.57;1.70;;;14.00;99.90;;;;;;5009334;28;20174;-88
2022/07/05 03:47:35;;;;;;;3.57;1.40;;;14.00;99.90;;;;;;5013287;28;20216;-84
2022/07/05 03:50:01;;;;;;;1.70;1.60;;;14.00;99.90;;;;;;5015776;28;20186;-88
2022/07/05 03:52:26;;;;;;;1.87;1.33;;;14.00;99.90;;;;;;5011973;28;20658;-83
2022/07/05 03:54:52;;;;;;;3.20;0.90;;;14.10;99.90;;;;;;5013214;28;20213;-87
2022/07/05 03:57:18;;;;;;;2.93;1.40;;;14.30;99.90;;;;;;5009652;28;20248;-88
2022/07/05 03:59:44;;;;;;;2.80;1.20;;;16.60;99.90;;;;;;5012184;28;20432;-84
2022/07/05 04:02:10;;;;;;;2.00;1.13;;;14.40;99.90;;;;;;5016015;28;20194;-89
2022/07/05 04:04:35;;;;;;;1.93;1.37;;;;;;;;;;5017996;28;20430;-87
2022/07/05 04:07:01;;;;;;;1.77;1.20;;;14.50;99.90;;;;;;5018406;28;20301;-84
2022/07/05 04:09:27;;;;;;;2.93;1.17;;;14.70;99.90;;;;;;5020014;28;20778;-89
2022/07/05 04:11:53;;;;;;;5.87;1.30;;;14.70;99.90;;;;;;5040706;28;20214;-89
2022/07/05 04:14:19;;;;;;;2.03;1.50;;;;;;;;;;5032163;28;21018;-88
2022/07/05 04:16:45;;;;;;;3.67;1.20;;;;;;;;;;5021723;28;20181;-85
2022/07/05 04:19:10;;;;;;;1.87;1.50;;;14.90;99.90;;;;;;5022092;28;20777;-88
2022/07/05 04:21:36;;;;;;;1.70;1.30;;;15.40;99.90;;;;;;5021995;28;20487;-87
2022/07/05 04:24:01;;;;;;;2.70;1.07;;;17.40;99.90;;;;;;5022212;28;20178;-90
2022/07/05 04:26:27;;;;;;;2.90;1.33;;;;;;;;;;5018414;28;20270;-85
2022/07/05 04:28:53;;;;;;;4.87;1.33;;;22.50;99.90;;;;;;5021208;28;20525;-83
2022/07/05 04:31:18;;;;;;;0.97;0.70;;;26.30;99.90;;;;;;5016094;28;20516;-82
2022/07/05 04:33:44;;;;;;;1.33;1.10;;;26.30;99.90;;;;;;5016782;28;20242;-79
2022/07/05 04:36:10;;;;;;;1.80;1.10;;;28.10;96.60;;;;;;5014381;28;20189;-82
2022/07/05 04:38:35;;;;;;;1.83;1.20;;;29.60;91.60;;;;;;5010499;28;20200;-82
2022/07/05 04:41:01;;;;;;;2.97;1.27;;;31.10;84.00;;;;;;5018006;28;20185;-84
2022/07/05 04:43:26;;;;;;;1.70;1.17;;;31.40;71.20;;;;;;5017562;28;20222;-80
2022/07/05 04:45:52;;;;;;;3.27;0.80;;;30.80;71.40;;;;;;5015136;28;20245;-84
2022/07/05 04:48:17;;;;;;;1.73;1.30;;;31.90;72.10;;;;;;5006729;28;20186;-83
2022/07/05 04:50:43;;;;;;;3.03;1.13;;;33.40;67.20;;;;;;5007799;28;20288;-85
2022/07/05 04:53:09;;;;;;;4.20;1.80;;;34.90;61.40;;;;;;5011161;28;20781;-81
2022/07/05 04:55:35;;;;;;;2.97;2.20;;;36.20;57.60;;;;;;4997700;28;20232;-82
2022/07/05 04:58:01;;;;;;;2.90;2.70;;;37.00;53.80;;;;;;5006545;28;21377;-81
2022/07/05 05:00:26;;;;;;;4.10;3.70;;;37.40;51.60;;;;;;5004335;28;20189;-83
2022/07/05 05:02:52;;;;;;;4.20;3.90;;;37.70;50.80;;;;;;5000429;28;20290;-81
2022/07/05 05:05:17;;;;;;;5.10;4.80;;;38.80;48.70;;;;;;5001924;28;20749;-80
2022/07/05 05:07:44;;;;;;;7.23;6.50;;;39.90;45.70;;;;;;5006876;28;20633;-80
2022/07/05 05:10:11;;;;;;;7.43;7.10;;;41.00;42.60;;;;;;5011066;28;20517;-83
2022/07/05 05:12:37;;;;;;;10.07;9.57;;;;;;;;;;5009303;28;20482;-82
2022/07/05 05:15:08;;;;;;;9.93;9.47;;;41.80;39.10;;;;;;5002225;28;20431;-85
2022/07/05 05:17:41;;;;;;;11.50;10.90;;;40.90;39.90;;;;;;5010058;28;20440;-84
2022/07/05 05:20:10;;;;;;;10.13;9.63;;;39.20;40.30;;;;;;5006309;28;20431;-83
2022/07/05 05:22:36;;;;;;;10.90;10.13;;;38.10;41.30;;;;;;5007723;28;20458;-85
2022/07/05 05:25:03;;;;;;;11.90;10.07;;;37.50;41.80;;;;;;4996834;28;20453;-82
2022/07/05 05:27:28;;;;;;;10.43;9.37;;;37.90;42.30;;;;;;5009257;28;20214;-84
2022/07/05 05:29:54;;;;;;;9.27;8.77;;;37.10;42.40;;;;;;5008906;28;20871;-81
2022/07/05 05:32:19;;;;;;;9.50;8.77;;;37.20;43.70;;;;;;5004968;28;20225;-81
2022/07/05 05:34:45;;;;;;;10.30;9.80;;;38.50;42.80;;;;;;5005377;28;20194;-83
2022/07/05 05:37:10;;;;;;;10.57;9.97;;;39.30;40.80;;;;;;5016614;28;20650;-83
2022/07/05 05:39:36;;;;;;;11.93;11.23;;;40.20;40.70;;;;;;5009356;28;20186;-82
2022/07/05 05:42:01;;;;;;;12.63;11.53;;;41.30;38.70;;;;;;5015510;28;21242;-82
2022/07/05 05:44:27;;;;;;;14.27;13.53;;;42.30;38.50;;;;;;5011728;28;20743;-82
2022/07/05 05:46:52;;;;;;;14.20;13.50;;;43.30;36.90;;;;;;5010545;28;20184;-81
2022/07/05 05:49:18;;;;;;;14.10;13.10;;;43.90;35.90;;;;;;5002561;28;21795;-85
2022/07/05 05:51:44;;;;;;;14.30;13.50;;;44.40;35.10;;;;;;5006710;28;20220;-83
2022/07/05 05:54:09;;;;;;;15.53;14.50;;;44.30;34.40;;;;;;5005253;28;20992;-83
2022/07/05 05:56:35;;;;;;;15.27;14.47;;;43.80;34.20;;;;;;5004776;28;20193;-82
2022/07/05 05:59:00;;;;;;;15.67;14.87;;;42.40;34.70;;;;;;5005286;28;20181;-84
2022/07/05 06:01:26;;;;;;;15.80;14.60;;;40.50;35.50;;;;;;5005512;28;20196;-84
2022/07/05 06:03:51;;;;;;;14.27;13.67;;;40.90;37.60;;;;;;5007101;28;20170;-83
2022/07/05 06:06:17;;;;;;;15.60;14.90;;;42.30;33.10;;;;;;5001908;28;20186;-83
2022/07/05 06:08:43;;;;;;;14.80;14.10;;;42.20;33.50;;;;;;5004194;28;20189;-83
2022/07/05 06:11:08;;;;;;;14.87;14.07;;;40.50;35.10;;;;;;5005904;28;20192;-84
2022/07/05 06:13:34;;;;;;;15.60;14.90;;;40.80;36.30;;;;;;5003547;28;20211;-81
2022/07/05 06:15:59;;;;;;;18.07;16.63;;;42.30;34.90;;;;;;5007396;28;20182;-84
2022/07/05 06:18:25;;;;;;;14.97;14.23;;;42.40;34.50;;;;;;5003882;28;20666;-81
2022/07/05 06:20:50;;;;;;;16.10;15.30;;;43.50;33.30;;;;;;5001652;28;20218;-82
2022/07/05 06:23:16;;;;;;;15.90;14.90;;;44.60;32.70;;;;;;5012105;28;20237;-82
2022/07/05 06:25:41;;;;;;;21.60;19.60;;;44.50;32.10;;;;;;5015117;28;20187;-84
2022/07/05 06:28:08;;;;;;;19.77;18.77;;;43.80;31.50;;;;;;5016376;28;20174;-85
2022/07/05 06:30:36;;;;;;;17.83;16.53;;;42.80;32.60;;;;;;5013506;28;20192;-82
2022/07/05 06:33:02;;;;;;;17.53;16.30;;;43.40;33.10;;;;;;5013246;28;20445;-83
2022/07/05 06:35:28;;;;;;;15.97;14.37;;;44.40;31.40;;;;;;5012731;28;21041;-82
2022/07/05 06:38:00;;;;;;;11.03;10.27;;;43.80;33.00;;;;;;5019201;28;20557;-82
2022/07/05 06:40:29;;;;;;;11.23;10.67;;;42.70;31.20;;;;;;5015266;28;20431;-83
2022/07/05 06:42:56;;;;;;;13.03;12.43;;;41.70;32.30;;;;;;5006646;28;20467;-83
2022/07/05 06:45:23;;;;;;;13.50;12.93;;;40.90;33.10;;;;;;4997485;28;20472;-80
2022/07/05 06:48:00;;;;;;;17.07;16.27;;;41.30;33.90;;;;;;5010543;28;20446;-81
2022/07/05 06:50:27;;;;;;;19.57;18.60;;;42.90;32.40;;;;;;5008029;28;20524;-82
2022/07/05 06:52:53;;;;;;;20.20;19.40;;;42.70;29.80;;;;;;5005534;28;20464;-83
2022/07/05 06:55:19;;;;;;;20.57;19.77;;;42.40;30.00;;;;;;5005334;28;20463;-84
2022/07/05 06:57:45;;;;;;;14.03;13.20;;;40.70;31.60;;;;;;5005809;28;20445;-82
2022/07/05 07:00:12;;;;;;;13.83;13.13;;;39.30;33.10;;;;;;5008800;28;20441;-81
2022/07/05 07:02:37;;;;;;;11.70;10.80;;;39.40;33.50;;;;;;5004147;28;20206;-81
2022/07/05 07:05:03;;;;;;;15.60;14.80;;;40.90;34.40;;;;;;5002996;28;20491;-83
2022/07/05 07:10:16;;;;;;;13.53;12.93;;;;;;;;;;5005176;28;20185;-82
2022/07/05 07:12:41;;;;;;;13.40;12.80;;;40.30;33.00;;;;;;5005168;28;20477;-83
2022/07/05 07:15:07;;;;;;;12.80;12.00;;;39.70;33.20;;;;;;5008359;28;20444;-85
2022/07/05 07:17:33;;;;;;;14.07;12.90;;;38.50;33.40;;;;;;5003098;28;20252;-82
2022/07/05 07:19:58;;;;;;;13.03;12.10;;;38.70;34.60;;;;;;5004538;28;20441;-81
2022/07/05 07:22:24;;;;;;;12.70;12.00;;;38.70;34.80;;;;;;5003079;28;20638;-83
2022/07/05 07:24:50;;;;;;;12.47;11.97;;;38.10;34.00;;;;;;4993236;28;21064;-82
2022/07/05 07:27:15;;;;;;;13.27;12.53;;;38.80;34.70;;;;;;5007637;28;20212;-81
2022/07/05 07:29:41;;;;;;;13.43;12.70;;;39.10;34.80;;;;;;5003981;28;20186;-82
2022/07/05 07:32:09;;;;;;;14.00;13.20;;;40.40;34.20;;;;;;5003818;28;20216;-81
2022/07/05 07:34:36;;;;;;;12.33;11.73;;;39.90;34.30;;;;;;4993960;28;20174;-81
2022/07/05 07:37:01;;;;;;;13.17;12.60;;;40.00;34.90;;;;;;5011063;28;20452;-79
2022/07/05 07:39:27;;;;;;;13.80;13.20;;;39.10;33.40;;;;;;5008842;28;20553;-83
2022/07/05 07:41:53;;;;;;;12.87;12.30;;;38.90;35.30;;;;;;5004680;28;20212;-80
2022/07/05 07:44:19;;;;;;;13.27;12.77;;;39.90;35.00;;;;;;5003737;28;20269;-83
2022/07/05 07:46:45;;;;;;;12.27;11.70;;;38.20;34.10;;;;;;5009469;28;20301;-82
2022/07/05 07:49:11;;;;;;;11.80;11.30;;;37.40;36.30;;;;;;5009042;28;20656;-83
2022/07/05 07:51:37;;;;;;;12.97;12.17;;;37.30;37.20;;;;;;5007245;28;20474;-83
2022/07/05 07:54:03;;;;;;;13.17;12.47;;;36.50;36.00;;;;;;4997445;28;20453;-81
2022/07/05 07:56:28;;;;;;;10.87;10.00;;;33.80;37.00;;;;;;5012550;28;20815;-82
2022/07/05 07:58:54;;;;;;;9.40;8.90;;;33.00;41.40;;;;;;5008946;28;20181;-82
2022/07/05 08:01:20;;;;;;;8.73;8.23;;;32.40;41.20;;;;;;5004252;28;20193;-83
2022/07/05 08:03:45;;;;;;;9.53;8.57;;;32.40;41.80;;;;;;5005722;28;20199;-83
2022/07/05 08:06:12;;;;;;;8.90;8.50;;;31.90;40.90;;;;;;5008757;28;20178;-81
2022/07/05 08:08:38;;;;;;;7.80;7.40;;;32.40;40.10;;;;;;5011695;28;20189;-85
2022/07/05 08:11:05;;;;;;;9.10;8.40;;;32.90;40.30;;;;;;5012078;28;20458;-81
2022/07/05 08:13:30;;;;;;;9.17;8.57;;;33.60;40.00;;;;;;5005618;28;20462;-85
2022/07/05 08:15:56;;;;;;;9.20;8.40;;;34.90;38.50;;;;;;5023410;28;21266;-82
2022/07/05 08:23:50;;;;;;;9.57;8.63;;;34.30;40.50;;;;;;5008455;28;20433;-85
2022/07/05 08:26:16;;;;;;;9.33;8.73;;;33.30;39.40;;;;;;5008354;28;20478;-84
2022/07/05 08:28:41;;;;;;;8.97;8.47;;;33.50;38.90;;;;;;5002959;28;20262;-84
2022/07/05 08:31:07;;;;;;;8.33;7.57;;;32.90;38.30;;;;;;5011381;28;20210;-84
2022/07/05 08:33:32;;;;;;;8.37;7.57;;;32.80;41.30;;;;;;5010832;28;20561;-84
2022/07/05 08:35:58;;;;;;;8.40;8.00;;;32.40;40.50;;;;;;5011755;28;20636;-80
2022/07/05 08:38:23;;;;;;;8.23;7.50;;;32.70;39.90;;;;;;5006985;28;20635;-82
2022/07/05 08:40:55;;;;;;;8.63;8.00;;;33.30;40.60;;;;;;5010706;28;20200;-83
2022/07/05 08:43:22;;;;;;;8.20;7.70;;;33.50;40.20;;;;;;5011639;28;20393;-84
2022/07/05 08:45:49;;;;;;;8.30;7.70;;;33.60;40.70;;;;;;5009524;28;20434;-80
2022/07/05 08:48:16;;;;;;;7.50;7.10;;;32.10;40.80;;;;;;5011966;28;20450;-82
2022/07/05 08:50:43;;;;;;;7.67;7.23;;;32.40;43.60;;;;;;5008879;28;20510;-80
2022/07/05 08:53:09;;;;;;;8.60;8.00;;;32.40;43.70;;;;;;5010581;28;21076;-82
2022/07/05 08:55:35;;;;;;;8.17;7.77;;;32.90;41.20;;;;;;5004767;28;20446;-81
2022/07/05 08:58:02;;;;;;;7.67;7.07;;;33.80;43.20;;;;;;5006535;28;20432;-81
2022/07/05 09:00:28;;;;;;;9.30;8.60;;;35.60;41.70;;;;;;5007837;28;20764;-85
2022/07/05 09:02:55;;;;;;;8.60;8.00;;;34.50;38.90;;;;;;5024696;28;20469;-86
2022/07/05 09:05:21;;;;;;;8.00;7.60;;;33.60;42.20;;;;;;5022589;28;20433;-84
2022/07/05 09:08:00;;;;;;;7.77;7.27;;;31.70;43.60;;;;;;5021898;28;20447;-86
2022/07/05 09:10:28;;;;;;;8.60;7.03;;;31.80;45.00;;;;;;5016322;28;20454;-85
2022/07/05 09:12:54;;;;;;;8.43;6.17;;;32.00;44.40;;;;;;5022615;28;20474;-87
2022/07/05 09:15:20;;;;;;;7.50;6.80;;;31.80;47.20;;;;;;5016225;28;20983;-84
2022/07/05 09:17:46;;;;;;;6.43;5.83;;;31.50;43.70;;;;;;5018204;28;20513;-86
2022/07/05 09:20:14;;;;;;;6.43;6.03;;;30.50;46.00;;;;;;5015187;28;20385;-85
2022/07/05 09:22:53;;;;;;;6.60;6.13;;;30.10;45.40;;;;;;5010702;28;20467;-87
2022/07/05 09:25:23;;;;;;;6.23;5.67;;;31.30;46.70;;;;;;5025358;28;20429;-86
2022/07/05 09:28:04;;;;;;;5.90;5.60;;;32.80;45.00;;;;;;5016084;28;20411;-88
2022/07/05 09:30:34;;;;;;;6.37;6.07;;;31.20;45.60;;;;;;5015939;28;20411;-89
2022/07/05 09:33:04;;;;;;;5.97;5.53;;;30.30;45.10;;;;;;5013305;28;20478;-79
2022/07/05 09:35:35;;;;;;;6.07;5.70;;;31.00;45.70;;;;;;5011870;28;20441;-82
2022/07/05 09:38:03;;;;;;;6.87;6.30;;;32.10;44.60;;;;;;5013200;28;20440;-82
2022/07/05 09:40:30;;;;;;;7.00;6.30;;;32.40;43.40;;;;;;5006785;28;20493;-83
2022/07/05 09:43:14;;;;;;;5.90;5.50;;;32.30;43.90;;;;;;4997777;28;20501;-80
2022/07/05 09:45:53;;;;;;;6.20;5.60;;;31.60;43.80;;;;;;5024451;28;20462;-81
2022/07/05 09:48:18;;;;;;;6.97;6.40;;;32.60;44.50;;;;;;5010176;28;20444;-84
2022/07/05 09:50:45;;;;;;;6.90;6.60;;;;;;;;;;5012813;28;20444;-87
2022/07/05 09:53:12;;;;;;;7.37;6.87;;;32.80;42.00;;;;;;5013827;28;20289;-81
2022/07/05 09:55:38;;;;;;;8.10;7.50;;;32.80;41.70;;;;;;5024299;28;20422;-88
2022/07/05 09:58:04;;;;;;;7.50;7.10;;;32.20;42.40;;;;;;5010365;28;20480;-83
2022/07/05 10:00:31;;;;;;;7.80;7.30;;;32.00;43.50;;;;;;5007167;28;20431;-83
2022/07/05 10:03:00;;;;;;;7.23;6.63;;;32.20;42.70;;;;;;5008901;28;20238;-83
2022/07/05 10:05:32;;;;;;;7.17;6.77;;;33.00;42.10;;;;;;5015714;28;20434;-82
2022/07/05 10:07:59;;;;;;;6.87;6.47;;;31.80;42.40;;;;;;5012261;28;20440;-83
2022/07/05 10:10:27;;;;;;;7.10;6.80;;;32.70;43.10;;;;;;5008499;28;21515;-84
2022/07/05 10:12:58;;;;;;;7.63;7.17;;;33.40;43.60;;;;;;5004277;28;20920;-81
2022/07/05 10:15:31;;;;;;;6.73;6.30;;;31.60;42.20;;;;;;5004653;28;20435;-83
2022/07/05 10:18:10;;;;;;;7.00;6.60;;;31.40;43.10;;;;;;5006393;28;20527;-85
2022/07/05 10:20:47;;;;;;;6.80;6.40;;;31.60;42.40;;;;;;5014207;28;20487;-84
2022/07/05 10:23:14;;;;;;;6.90;6.50;;;33.00;43.10;;;;;;5017756;28;20466;-80
2022/07/05 10:25:43;;;;;;;8.10;7.60;;;34.10;40.30;;;;;;5018784;28;20603;-82
2022/07/05 10:28:10;;;;;;;7.63;7.33;;;33.60;41.40;;;;;;5008851;28;20504;-84
2022/07/05 10:30:35;;;;;;;7.80;7.40;;;33.90;41.70;;;;;;5009343;28;20455;-81
2022/07/05 10:33:03;;;;;;;7.40;6.93;;;32.00;40.50;;;;;;5010363;28;20470;-82
2022/07/05 10:35:29;;;;;;;7.10;6.80;;;31.50;42.60;;;;;;5012047;28;20280;-79
2022/07/05 10:37:56;;;;;;;7.63;6.63;;;32.40;42.10;;;;;;5006637;28;21010;-82
2022/07/05 10:40:21;;;;;;;7.90;7.50;;;32.70;43.50;;;;;;5003204;28;20458;-83
2022/07/05 10:42:55;;;;;;;6.30;6.00;;;31.90;41.80;;;;;;5004230;28;20475;-80
2022/07/05 10:45:34;;;;;;;5.77;5.47;;;32.30;44.50;;;;;;5005160;28;20170;-84
2022/07/05 10:48:17;;;;;;;5.23;4.73;;;29.00;44.80;;;;;;5062256;22;20549;-92
2022/07/05 10:51:16;;;;;;;3.80;3.37;;;28.60;47.00;;;;;;5025250;28;20457;-91
2022/07/05 10:53:45;;;;;;;3.10;2.90;;;;;;;;;;5022460;28;20525;-91
2022/07/05 10:56:17;;;;;;;3.47;3.17;;;28.40;46.50;;;;;;5030363;28;20846;-91
2022/07/05 10:58:47;;;;;;;8.20;2.80;;;27.60;48.50;;;;;;5021607;28;20447;-91
2022/07/05 11:01:16;;;;;;;3.60;2.63;;;;;;;;;;5023283;28;20440;-91
2022/07/05 11:03:45;;;;;;;2.73;2.53;;;27.00;47.20;;;;;;5030976;28;20443;-92
2022/07/05 11:06:24;;;;;;;6.80;2.27;;;29.50;49.40;;;;;;5028984;28;20463;-91
2022/07/05 11:08:59;;;;;;;2.30;2.13;;;27.70;50.00;;;;;;5030306;28;20496;-92
2022/07/05 11:11:40;;;;;;;8.37;2.60;;;27.80;48.20;;;;;;5024802;28;20491;-91
2022/07/05 11:14:25;;;;;;;2.60;2.40;;;27.90;51.30;;;;;;5024185;28;20440;-91
2022/07/05 11:17:13;;;;;;;4.60;2.60;;;26.90;51.30;;;;;;5015983;28;20879;-91
2022/07/05 11:20:01;;;;;;;3.20;2.53;;;28.90;52.30;;;;;;5024280;28;20892;-90
2022/07/05 11:22:27;;;;;;;3.53;2.70;;;26.80;50.20;;;;;;5026372;28;20806;-91
2022/07/05 11:24:57;;;;;;;2.67;2.47;;;27.00;48.90;;;;;;5033173;28;20930;-91
2022/07/05 11:27:23;;;;;;;6.47;2.47;;;28.30;51.10;;;;;;5023396;28;21078;-91
2022/07/05 11:29:57;;;;;;;2.47;2.30;;;27.60;50.10;;;;;;5024384;28;20466;-91
2022/07/05 11:32:31;;;;;;;4.90;2.63;;;27.10;49.20;;;;;;5021978;28;20714;-88
2022/07/05 11:35:16;;;;;;;3.70;2.30;;;27.00;50.40;;;;;;5020386;28;20499;-92
2022/07/05 11:37:59;;;;;;;3.50;2.43;;;27.10;51.10;;;;;;5018062;28;20439;-92
2022/07/05 11:40:33;;;;;;;4.63;2.47;;;28.90;52.60;;;;;;5020412;28;20489;-89
2022/07/05 11:43:06;;;;;;;2.73;2.10;;;27.90;48.10;;;;;;5030214;28;20453;-90
2022/07/05 11:45:33;;;;;;;5.27;1.93;;;;;;;;;;5023171;28;20458;-90
2022/07/05 11:47:59;;;;;;;4.13;2.60;;;;;;;;;;5020945;28;20469;-93
2022/07/05 11:50:27;;;;;;;4.23;2.50;;;26.80;47.30;;;;;;5029089;28;20466;-90
2022/07/05 11:52:53;;;;;;;2.60;2.40;;;;;;;;;;5021288;28;20501;-92
2022/07/05 11:55:28;;;;;;;6.40;2.57;;;26.80;48.70;;;;;;5018205;28;20845;-92
2022/07/05 11:57:55;;;;;;;2.60;2.33;;;27.20;48.70;;;;;;5023512;28;20439;-92
2022/07/05 12:00:36;;;;;;;5.97;2.30;;;28.10;48.20;;;;;;5036820;28;20928;-92
2022/07/05 12:03:18;;;;;;;5.57;2.13;;;27.20;48.30;;;;;;5023972;28;20470;-92
2022/07/05 12:05:44;;;;;;;2.13;1.93;;;;;;;;;;5030499;28;20449;-92
2022/07/05 12:08:10;;;;;;;3.17;2.30;;;;;;;;;;5027605;28;20522;-91
2022/07/05 12:13:22;;;;;;;3.37;3.00;;;27.20;46.50;;;;;;5029514;28;20525;-92
2022/07/05 12:15:48;;;;;;;3.07;2.20;;;27.30;46.30;;;;;;5024524;28;20447;-91
2022/07/05 12:18:15;;;;;;;2.60;2.40;;;;;;;;;;5021548;28;20435;-91
2022/07/05 12:20:41;;;;;;;3.10;2.50;;;;;;;;;;5026376;28;20219;-91
2022/07/05 12:23:07;;;;;;;2.80;2.50;;;;;;;;;;5024201;28;20436;-93
2022/07/05 12:25:36;;;;;;;2.53;2.33;;;27.30;47.30;;;;;;5029791;28;20554;-91
2022/07/05 12:28:06;;;;;;;2.97;2.77;;;26.80;48.20;;;;;;5025087;28;20441;-90
2022/07/05 12:30:32;;;;;;;4.80;2.33;;;;;;;;;;5021225;28;20806;-91
2022/07/05 12:33:06;;;;;;;3.60;2.33;;;26.80;49.30;;;;;;5033979;28;20469;-90
2022/07/05 12:35:38;;;;;;;5.07;2.53;;;26.90;48.70;;;;;;5024521;28;20438;-91
2022/07/05 12:38:41;;;;;;;3.83;2.13;;;26.90;48.10;;;;;;5028133;28;20446;-92
2022/07/05 12:41:08;;;;;;;2.57;2.33;;;;;;;;;;5020794;28;20485;-92
2022/07/05 12:43:48;;;;;;;2.67;1.90;;;27.40;48.50;;;;;;5038104;28;20438;-92
2022/07/05 12:46:51;;;;;;;3.67;1.87;;;27.20;48.80;;;;;;5027354;28;20443;-91
2022/07/05 12:49:17;;;;;;;7.33;2.20;;;;;;;;;;4929402;28;20479;-91
2022/07/05 12:51:44;;;;;;;7.93;2.30;;;27.30;48.20;;;;;;5012147;28;20471;-91
2022/07/05 13:00:07;;;;;;;3.80;2.00;;;26.90;47.90;;;;;;5021471;28;20461;-92
2022/07/05 13:02:41;;;;;;;3.40;2.33;;;27.10;48.50;;;;;;5025394;28;20462;-91
2022/07/05 13:05:08;;;;;;;7.03;2.40;;;27.20;47.40;;;;;;5021677;28;21439;-91
2022/07/05 13:07:47;;;;;;;2.50;2.10;;;27.30;48.60;;;;;;5027079;28;20432;-91
2022/07/05 13:10:19;;;;;;;5.93;1.87;;;27.60;48.90;;;;;;5021246;28;21062;-90